Legend Of The Seas — C6SL5 — position and weather

sailwx.info

Track history (hours):
 
Tides and Currents Weather Stations Pressure Air Temp Water Temp Dewpoint Dewpoint Depression Visibility Wind Speed Wind Dir Waves Ship Positions

Legend Of The Seas

Operator: Royal Caribbean Cruises Ltd

Last reported at 2017-Mar-25 08:33 UTC. Time now 2017-Mar-25 19:42 UTC.
Position N 38°30' E 008°33'.

Type: Passenger vessel. MMSI: 311378000.

Date/timePositionNaut miles runAvg speedWind from/ knotsBaromVisibWave heightAir tempDewpointWater temp
2017-Mar-25 08:33N 38°30' E 008°33'21319.4
2017-Mar-24 21:33N 36°53' E 012°33'1919.1
2017-Mar-24 20:33N 36°44' E 012°54'2019.5
2017-Mar-24 19:33N 36°35' E 013°16'1919.2
2017-Mar-24 18:33N 36°26' E 013°37'1919.1
2017-Mar-24 17:33N 36°17' E 013°58'2019.4
2017-Mar-24 16:33N 36°08' E 014°19'1717.3
2017-Mar-24 15:33N 35°55' E 014°33'2 1.2
2017-Mar-24 13:34N 35°54' E 014°31'0 0.0
2017-Mar-24 04:32N 35°53' E 014°31'8 8.7
2017-Mar-24 03:33N 35°56' E 014°41'1413.6
2017-Mar-24 02:33N 35°57' E 014°58'3413.7
2017-Mar-24 00:05N 35°59' E 015°39'2313.7
2017-Mar-23 22:23N 36°01' E 016°08'1214.4
2017-Mar-23 21:32N 36°01' E 016°23'1613.8
2017-Mar-23 20:23N 36°02' E 016°43'34613.2
2017-Mar-22 18:06N 37°29' E 023°41'916.3
2017-Mar-22 17:33N 37°37' E 023°42'1615.8
2017-Mar-22 16:33N 37°53' E 023°37'4 0.6
2017-Mar-22 10:15N 37°56' E 023°38'0 0.0
2017-Mar-22 07:33N 37°56' E 023°38'0 0.0
2017-Mar-22 06:33N 37°56' E 023°38'0 0.0
2017-Mar-22 05:33N 37°56' E 023°38'0 0.0
2017-Mar-22 04:33N 37°56' E 023°38'0 0.0
2017-Mar-22 03:33N 37°56' E 023°38'2 1.5
2017-Mar-22 02:34N 37°56' E 023°36'1312.9
2017-Mar-22 01:33N 37°44' E 023°43'1413.8
2017-Mar-22 00:33N 37°31' E 023°49'  
Track history (hours):
 
Tides and Currents Weather Stations Pressure Air Temp Water Temp Dewpoint Dewpoint Depression Visibility Wind Speed Wind Dir Waves Ship Positions

Legend Of The Seas

Operator: Royal Caribbean Cruises Ltd

Last reported at 2017-Mar-25 08:33 UTC. Time now 2017-Mar-25 19:42 UTC.
Position N 38°30' E 008°33'.

Type: Passenger vessel. MMSI: 311378000.

Date/timePositionNaut miles runAvg speedWind from/ knotsBaromVisibWave heightAir tempDewpointWater temp
2017-Mar-25 08:33N 38°30' E 008°33'21319.4
2017-Mar-24 21:33N 36°53' E 012°33'1919.1
2017-Mar-24 20:33N 36°44' E 012°54'2019.5
2017-Mar-24 19:33N 36°35' E 013°16'1919.2
2017-Mar-24 18:33N 36°26' E 013°37'1919.1
2017-Mar-24 17:33N 36°17' E 013°58'2019.4
2017-Mar-24 16:33N 36°08' E 014°19'1717.3
2017-Mar-24 15:33N 35°55' E 014°33'2 1.2
2017-Mar-24 13:34N 35°54' E 014°31'0 0.0
2017-Mar-24 04:32N 35°53' E 014°31'8 8.7
2017-Mar-24 03:33N 35°56' E 014°41'1413.6
2017-Mar-24 02:33N 35°57' E 014°58'3413.7
2017-Mar-24 00:05N 35°59' E 015°39'2313.7
2017-Mar-23 22:23N 36°01' E 016°08'1214.4
2017-Mar-23 21:32N 36°01' E 016°23'1613.8
2017-Mar-23 20:23N 36°02' E 016°43'34613.2
2017-Mar-22 18:06N 37°29' E 023°41'916.3
2017-Mar-22 17:33N 37°37' E 023°42'1615.8
2017-Mar-22 16:33N 37°53' E 023°37'4 0.6
2017-Mar-22 10:15N 37°56' E 023°38'0 0.0
2017-Mar-22 07:33N 37°56' E 023°38'0 0.0
2017-Mar-22 06:33N 37°56' E 023°38'0 0.0
2017-Mar-22 05:33N 37°56' E 023°38'0 0.0
2017-Mar-22 04:33N 37°56' E 023°38'0 0.0
2017-Mar-22 03:33N 37°56' E 023°38'2 1.5
2017-Mar-22 02:34N 37°56' E 023°36'1312.9
2017-Mar-22 01:33N 37°44' E 023°43'1413.8
2017-Mar-22 00:33N 37°31' E 023°49'  

Dump ship's entire track history